Time;durP1;ratioP1;P1;durP2;ratioP2;P2;SDS_P1;SDS_P2;PMS_P1;PMS_P2;Temp;Humidity;BMP_temperature;BMP_pressure;BME280_temperature;BME280_humidity;BME280_pressure;Samples;Min_cycle;Max_cycle;Signal;HPM_P1;HPM_P2
2023/08/19 00:02:10;;;;;;;13.90;10.05;;;;;;;24.31;95.31;100564.44;5036985;28;20049;-83
2023/08/19 00:04:46;;;;;;;11.90;10.10;;;;;;;24.24;95.33;100558.41;5045574;28;20053;-79
2023/08/19 00:07:13;;;;;;;15.40;10.50;;;;;;;24.10;95.56;100558.78;5041955;28;20057;-80
2023/08/19 00:09:39;;;;;;;16.17;10.20;;;;;;;24.11;95.46;100563.06;5041336;28;20522;-79
2023/08/19 00:12:09;;;;;;;17.05;9.88;;;;;;;24.06;95.56;100551.53;5034350;28;20053;-79
2023/08/19 00:14:36;;;;;;;12.43;9.25;;;;;;;24.05;95.50;100552.56;5042562;28;20084;-79
2023/08/19 00:17:03;;;;;;;13.32;9.65;;;;;;;23.97;95.78;100544.97;5042496;28;20089;-80
2023/08/19 00:19:30;;;;;;;15.35;9.73;;;;;;;23.93;95.88;100550.00;5037655;28;20174;-79
2023/08/19 00:22:05;;;;;;;16.02;10.15;;;;;;;23.90;96.03;100553.16;5031736;28;20046;-79
2023/08/19 00:24:34;;;;;;;14.93;10.75;;;;;;;23.86;96.17;100568.06;5040377;28;20133;-80
2023/08/19 00:27:01;;;;;;;12.10;9.43;;;;;;;23.81;96.20;100570.66;5037771;28;20085;-79
2023/08/19 00:29:28;;;;;;;15.93;9.68;;;;;;;23.73;96.46;100552.38;5042233;28;20049;-81
2023/08/19 00:31:55;;;;;;;13.30;10.10;;;;;;;23.73;97.10;100563.84;5043453;28;20041;-80
2023/08/19 00:34:22;;;;;;;12.98;10.27;;;;;;;23.69;97.58;100561.91;5044024;28;20080;-80
2023/08/19 00:36:49;;;;;;;11.93;9.63;;;;;;;23.61;97.72;100563.16;5044676;28;20124;-80
2023/08/19 00:39:17;;;;;;;16.55;10.10;;;;;;;23.53;98.10;100557.38;5043624;28;20084;-80
2023/08/19 00:41:45;;;;;;;13.30;10.35;;;;;;;23.57;98.50;100566.56;5043732;28;20064;-81
2023/08/19 00:44:12;;;;;;;15.15;9.60;;;;;;;23.53;98.94;100566.22;5044265;28;20091;-82
2023/08/19 00:46:38;;;;;;;15.32;9.90;;;;;;;23.49;98.94;100568.53;5044006;28;20092;-80
2023/08/19 00:49:08;;;;;;;12.77;9.82;;;;;;;23.50;98.67;100559.47;5043047;28;20077;-80
2023/08/19 00:51:35;;;;;;;11.38;9.18;;;;;;;23.41;98.39;100558.25;5036226;28;20050;-79
2023/08/19 00:54:03;;;;;;;16.33;10.75;;;;;;;23.35;98.59;100561.09;5046926;28;20297;-80
2023/08/19 00:56:31;;;;;;;12.85;9.15;;;;;;;23.30;98.51;100553.00;5046036;28;20088;-78
2023/08/19 00:58:58;;;;;;;14.82;10.38;;;;;;;23.30;98.55;100558.31;5045861;28;20057;-79
2023/08/19 01:01:24;;;;;;;13.13;9.65;;;;;;;23.23;98.93;100555.00;5047480;28;20140;-80
2023/08/19 01:03:51;;;;;;;15.75;9.60;;;;;;;23.15;98.81;100550.88;5041091;28;20050;-81
2023/08/19 01:06:26;;;;;;;10.18;9.15;;;;;;;23.12;98.77;100557.53;5043652;28;20585;-78
2023/08/19 01:09:01;;;;;;;12.23;9.00;;;;;;;23.10;98.68;100548.13;5046606;28;20446;-80
2023/08/19 01:11:46;;;;;;;16.67;9.88;;;;;;;23.04;98.95;100557.91;5049708;28;20055;-80
2023/08/19 01:14:27;;;;;;;16.08;9.82;;;;;;;23.00;98.91;100555.94;5051085;28;20054;-79
2023/08/19 01:16:54;;;;;;;13.93;9.40;;;;;;;22.94;99.32;100556.91;5052516;28;20060;-78
2023/08/19 01:19:24;;;;;;;14.77;10.43;;;;;;;22.96;99.55;100552.13;5048422;28;20049;-79
2023/08/19 01:21:54;;;;;;;15.57;9.95;;;;;;;22.89;99.15;100551.47;5046850;28;20046;-79
2023/08/19 01:24:21;;;;;;;13.70;9.02;;;;;;;22.90;99.09;100542.41;5045544;28;20104;-79
2023/08/19 01:26:55;;;;;;;15.18;9.25;;;;;;;22.81;98.79;100539.31;5045503;28;20561;-81
2023/08/19 01:29:22;;;;;;;14.13;9.50;;;;;;;22.81;98.36;100531.31;5046865;28;20612;-76
2023/08/19 01:31:48;;;;;;;15.55;9.60;;;;;;;22.83;98.35;100539.88;5044276;28;20054;-80
2023/08/19 01:34:15;;;;;;;12.45;8.45;;;;;;;22.74;97.93;100534.09;5047436;28;20061;-80
2023/08/19 01:36:46;;;;;;;14.93;9.23;;;;;;;22.71;98.14;100544.41;5047594;28;20355;-81
2023/08/19 01:39:14;;;;;;;11.63;9.20;;;;;;;22.67;98.15;100538.78;5038669;28;20049;-81
2023/08/19 01:41:44;;;;;;;13.35;8.77;;;;;;;22.62;98.34;100536.00;5047779;28;20061;-81
2023/08/19 01:44:12;;;;;;;12.20;8.65;;;;;;;22.61;98.61;100542.41;5049371;28;20053;-84
2023/08/19 01:46:42;;;;;;;13.18;9.05;;;;;;;22.55;98.78;100540.69;5040645;28;20077;-82
2023/08/19 01:49:08;;;;;;;14.90;9.60;;;;;;;22.61;99.02;100544.25;5033739;28;20420;-78
2023/08/19 01:51:35;;;;;;;11.32;8.88;;;;;;;22.57;98.48;100551.91;5033955;28;20068;-81
2023/08/19 01:54:02;;;;;;;19.13;9.43;;;;;;;22.55;98.43;100543.34;5043645;28;20088;-78
2023/08/19 01:56:28;;;;;;;14.95;9.10;;;;;;;22.53;98.29;100542.75;5041791;28;20052;-78
2023/08/19 01:58:56;;;;;;;9.40;8.40;;;;;;;22.49;98.56;100537.09;5043613;28;20117;-85
2023/08/19 02:01:24;;;;;;;9.38;8.38;;;;;;;22.53;98.16;100542.75;5034682;28;20053;-79
2023/08/19 02:03:51;;;;;;;14.55;9.15;;;;;;;22.49;98.02;100547.75;5041674;28;20088;-79
2023/08/19 02:06:17;;;;;;;11.77;8.75;;;;;;;22.44;98.36;100536.19;5042802;28;20076;-80
2023/08/19 02:08:44;;;;;;;10.05;8.60;;;;;;;22.44;98.12;100552.97;5043547;28;20067;-82
2023/08/19 02:11:10;;;;;;;16.10;7.97;;;;;;;22.43;98.18;100546.03;5043638;28;20052;-79
2023/08/19 02:13:37;;;;;;;12.88;8.32;;;;;;;22.44;98.16;100550.31;5037164;28;20069;-79
2023/08/19 02:16:04;;;;;;;13.60;8.27;;;;;;;22.42;97.93;100547.06;5044563;28;20092;-82
2023/08/19 02:18:32;;;;;;;18.17;8.85;;;;;;;22.41;97.88;100549.97;5043677;28;20064;-82
2023/08/19 02:20:58;;;;;;;12.32;8.60;;;;;;;22.37;98.38;100543.50;5040213;28;20055;-77
2023/08/19 02:23:25;;;;;;;13.30;8.50;;;;;;;22.41;98.31;100547.31;5040728;28;20424;-80
2023/08/19 02:25:52;;;;;;;11.38;8.93;;;;;;;22.40;98.20;100540.38;5041251;28;20073;-80
2023/08/19 02:28:19;;;;;;;16.73;9.00;;;;;;;22.40;98.13;100537.69;5041301;28;20105;-82
2023/08/19 02:30:45;;;;;;;12.13;8.30;;;;;;;22.44;98.13;100533.50;5039206;28;20085;-80
2023/08/19 02:33:15;;;;;;;10.57;8.30;;;;;;;22.50;98.13;100540.56;5040814;28;20555;-81
2023/08/19 02:35:43;;;;;;;15.55;8.13;;;;;;;22.56;97.52;100541.47;5041955;28;20140;-81
2023/08/19 02:38:09;;;;;;;14.07;8.45;;;;;;;22.57;97.59;100532.44;5042574;28;20109;-82
2023/08/19 02:40:36;;;;;;;10.60;8.15;;;;;;;22.58;97.78;100532.19;5044078;28;20079;-82
2023/08/19 02:43:02;;;;;;;14.40;8.55;;;;;;;22.61;97.61;100533.59;5044733;28;20128;-81
2023/08/19 02:45:29;;;;;;;12.15;8.23;;;;;;;22.51;97.59;100537.66;5044706;28;20069;-81
2023/08/19 02:47:56;;;;;;;15.10;8.57;;;;;;;22.47;98.08;100528.53;5044304;28;20526;-82
2023/08/19 02:50:22;;;;;;;11.40;8.50;;;;;;;22.44;97.96;100523.66;5041012;28;20099;-81
2023/08/19 02:52:50;;;;;;;12.25;8.90;;;;;;;22.44;98.32;100522.84;5036700;28;20516;-82
2023/08/19 02:55:17;;;;;;;14.55;8.35;;;;;;;22.45;98.35;100519.13;5043191;28;20105;-81
2023/08/19 02:57:43;;;;;;;11.80;7.97;;;;;;;22.49;98.01;100520.28;5043843;28;20081;-82
2023/08/19 03:00:11;;;;;;;14.65;8.05;;;;;;;22.50;97.90;100517.38;5042938;28;20128;-84
2023/08/19 03:02:38;;;;;;;14.52;8.23;;;;;;;22.47;98.10;100512.53;5042809;28;20058;-82
2023/08/19 03:05:07;;;;;;;12.02;7.95;;;;;;;22.45;98.28;100508.47;5044776;28;20049;-81
2023/08/19 03:07:34;;;;;;;11.13;7.82;;;;;;;22.47;97.99;100517.84;5037875;28;20053;-81
2023/08/19 03:10:02;;;;;;;12.45;8.02;;;;;;;22.41;98.67;100515.31;5045633;28;20100;-85
2023/08/19 03:12:29;;;;;;;15.60;8.65;;;;;;;22.42;99.18;100527.59;5042872;28;20065;-81
2023/08/19 03:14:55;;;;;;;13.57;7.78;;;;;;;22.37;99.01;100522.16;5042056;28;20096;-82
2023/08/19 03:17:24;;;;;;;13.50;8.40;;;;;;;22.38;99.31;100524.59;5042879;28;20100;-78
2023/08/19 03:19:52;;;;;;;13.23;8.13;;;;;;;22.38;98.94;100527.25;5044258;28;20100;-83
2023/08/19 03:22:18;;;;;;;12.35;8.27;;;;;;;22.38;99.26;100529.94;5044509;28;20085;-82
2023/08/19 03:24:45;;;;;;;11.52;8.23;;;;;;;22.35;99.00;100518.94;5045875;28;20060;-81
2023/08/19 03:27:13;;;;;;;16.35;8.35;;;;;;;22.38;98.89;100519.28;5047017;28;20084;-84
2023/08/19 03:29:39;;;;;;;9.35;7.95;;;;;;;22.37;98.97;100514.16;5048664;28;20080;-80
2023/08/19 03:32:06;;;;;;;12.10;8.20;;;;;;;22.37;99.09;100507.00;5043425;28;20408;-81
2023/08/19 03:34:33;;;;;;;12.38;8.45;;;;;;;22.35;98.83;100503.75;5041515;28;20084;-82
2023/08/19 03:36:59;;;;;;;12.38;7.88;;;;;;;22.34;99.04;100511.97;5040509;28;20076;-80
2023/08/19 03:39:26;;;;;;;10.35;8.50;;;;;;;22.35;99.16;100514.41;5040147;28;20128;-82
2023/08/19 03:41:52;;;;;;;10.82;7.57;;;;;;;22.37;99.45;100522.16;5039934;28;20085;-80
2023/08/19 03:44:20;;;;;;;10.15;8.13;;;;;;;22.31;99.29;100515.13;5040252;28;20114;-80
2023/08/19 03:46:47;;;;;;;13.43;8.73;;;;;;;22.32;99.13;100514.06;5041860;28;20073;-82
2023/08/19 03:49:14;;;;;;;10.50;8.05;;;;;;;22.30;99.16;100513.50;5040955;28;20149;-83
2023/08/19 03:51:40;;;;;;;11.73;8.00;;;;;;;22.28;99.55;100507.59;5040710;28;20084;-82
2023/08/19 03:54:07;;;;;;;16.45;8.52;;;;;;;22.23;99.46;100513.63;5035013;28;20124;-78
2023/08/19 03:56:33;;;;;;;12.43;8.27;;;;;;;22.23;99.31;100520.81;5034580;28;20092;-80
2023/08/19 03:59:00;;;;;;;11.02;8.18;;;;;;;22.30;99.32;100513.50;5034663;28;20139;-78
2023/08/19 04:01:28;;;;;;;15.52;8.45;;;;;;;22.27;98.65;100514.78;5029235;28;20109;-79
2023/08/19 04:03:54;;;;;;;13.13;8.13;;;;;;;22.27;98.47;100517.44;5037264;28;20105;-80
2023/08/19 04:06:21;;;;;;;11.77;8.00;;;;;;;22.28;98.23;100508.41;5029326;28;20133;-80
2023/08/19 04:08:47;;;;;;;21.15;8.70;;;;;;;22.31;97.92;100512.44;5037980;28;20081;-80
2023/08/19 04:11:14;;;;;;;12.15;7.97;;;;;;;22.40;97.67;100517.19;5034810;28;20109;-79
2023/08/19 04:13:41;;;;;;;12.52;7.40;;;;;;;22.41;97.38;100515.31;5036980;28;20508;-79
2023/08/19 04:16:08;;;;;;;10.38;7.90;;;;;;;22.45;97.37;100524.47;5033086;28;20048;-80
2023/08/19 04:18:36;;;;;;;13.70;7.50;;;;;;;22.36;97.11;100521.34;5027242;28;20049;-79
2023/08/19 04:21:04;;;;;;;11.40;8.35;;;;;;;22.32;96.99;100517.53;5034659;28;20143;-78
2023/08/19 04:23:31;;;;;;;11.23;7.72;;;;;;;22.31;97.25;100515.91;5038974;28;20435;-78
2023/08/19 04:25:58;;;;;;;11.23;8.18;;;;;;;22.29;97.47;100525.19;5033181;28;20084;-80
2023/08/19 04:28:30;;;;;;;15.93;7.57;;;;;;;22.32;97.80;100508.72;5038003;28;20109;-80
2023/08/19 04:31:18;;;;;;;10.30;8.13;;;;;;;22.28;97.15;100511.06;5035891;28;20190;-80
2023/08/19 04:34:20;;;;;;;10.00;7.93;;;;;;;22.26;97.31;100526.47;5033305;28;20049;-80
2023/08/19 04:36:57;;;;;;;8.63;7.43;;;;;;;22.21;97.62;100506.94;5030215;28;20050;-83
2023/08/19 04:42:44;;;;;;;10.00;7.93;;;;;;;22.26;97.61;100515.81;5024336;28;20526;-80
2023/08/19 04:45:14;;;;;;;14.02;8.20;;;;;;;22.34;97.93;100527.97;5030170;28;20049;-84
2023/08/19 04:47:47;;;;;;;8.82;6.97;;;;;;;22.38;97.90;100524.59;5030962;28;20132;-81
2023/08/19 04:50:21;;;;;;;10.02;7.50;;;;;;;22.38;97.58;100523.78;5031337;28;20080;-81
2023/08/19 04:52:51;;;;;;;8.52;7.47;;;;;;;22.41;97.24;100518.00;5040557;28;20081;-80
2023/08/19 04:55:18;;;;;;;8.77;6.97;;;;;;;22.49;96.82;100530.94;5029484;28;20315;-80
2023/08/19 04:57:44;;;;;;;11.15;7.93;;;;;;;22.47;96.53;100517.03;5025685;28;20056;-81
2023/08/19 05:00:17;;;;;;;12.68;7.47;;;;;;;22.58;96.34;100524.19;5038980;28;20088;-82
2023/08/19 05:02:46;;;;;;;;;;;;;;;22.49;95.77;100521.09;5028748;28;20451;-82
2023/08/19 05:05:16;;;;;;;11.98;7.50;;;;;;;22.54;95.76;100528.38;5036171;28;19925;-80
2023/08/19 05:07:42;;;;;;;14.50;7.20;;;;;;;22.62;95.55;100525.34;5039999;28;20050;-82
2023/08/19 05:10:10;;;;;;;11.65;7.50;;;;;;;22.62;95.54;100529.88;5032118;28;20133;-80
2023/08/19 05:12:36;;;;;;;11.73;7.60;;;;;;;22.61;95.41;100529.06;5040082;28;20081;-82
2023/08/19 05:15:05;;;;;;;12.18;7.15;;;;;;;22.67;95.46;100522.78;5031524;28;20431;-80
2023/08/19 05:17:32;;;;;;;11.35;7.03;;;;;;;22.74;94.98;100526.09;5031303;28;20085;-82
2023/08/19 05:19:59;;;;;;;9.98;7.63;;;;;;;22.91;94.55;100534.19;5040375;28;20053;-80
2023/08/19 05:22:26;;;;;;;12.35;7.05;;;;;;;23.11;93.89;100533.72;5038147;28;20388;-81
2023/08/19 05:24:53;;;;;;;12.23;7.07;;;;;;;23.13;93.06;100520.97;5026829;28;20140;-79
2023/08/19 05:27:20;;;;;;;12.57;7.43;;;;;;;23.09;92.81;100520.63;5038450;28;20408;-79
2023/08/19 05:29:46;;;;;;;9.30;7.00;;;;;;;23.03;93.26;100528.78;5039642;28;20513;-81
2023/08/19 05:32:13;;;;;;;12.02;6.93;;;;;;;23.13;92.88;100528.97;5032970;28;20108;-84
2023/08/19 05:34:40;;;;;;;9.55;6.70;;;;;;;23.18;93.05;100518.34;5040859;28;20057;-84
2023/08/19 05:37:07;;;;;;;12.20;6.90;;;;;;;23.66;91.79;100514.31;5040838;28;20081;-83
2023/08/19 05:39:35;;;;;;;11.35;6.72;;;;;;;24.22;88.78;100512.41;5041028;28;20475;-82
2023/08/19 05:42:02;;;;;;;9.52;6.32;;;;;;;24.53;86.49;100501.06;5042904;28;20061;-83
2023/08/19 05:44:28;;;;;;;10.30;6.72;;;;;;;24.28;86.66;100506.09;5041400;28;20415;-79
2023/08/19 05:46:55;;;;;;;9.80;6.80;;;;;;;23.91;88.18;100516.56;5039248;28;20053;-82
2023/08/19 05:49:22;;;;;;;16.35;7.03;;;;;;;23.60;89.62;100520.66;5035122;28;20073;-82
2023/08/19 05:51:48;;;;;;;14.93;6.53;;;;;;;23.61;89.82;100523.09;5044500;28;20069;-81
2023/08/19 05:54:18;;;;;;;11.27;7.60;;;;;;;23.58;90.50;100539.59;5034894;28;20087;-84
2023/08/19 05:56:46;;;;;;;8.57;6.50;;;;;;;23.78;90.20;100534.56;5042744;28;20085;-85
2023/08/19 05:59:24;;;;;;;12.27;6.90;;;;;;;23.65;90.45;100534.06;5035933;28;20045;-81
2023/08/19 06:02:06;;;;;;;8.98;6.70;;;;;;;23.83;90.06;100531.94;5040833;28;20057;-82
2023/08/19 06:04:42;;;;;;;11.73;7.47;;;;;;;23.70;89.53;100515.44;5032302;28;20446;-82
2023/08/19 06:07:09;;;;;;;10.52;6.95;;;;;;;23.62;90.39;100545.28;5042731;28;20081;-82
2023/08/19 06:09:45;;;;;;;11.60;7.07;;;;;;;23.66;90.72;100547.19;5040069;28;20057;-84
2023/08/19 06:12:13;;;;;;;10.05;6.90;;;;;;;23.77;90.71;100553.50;5026910;28;20050;-85
2023/08/19 06:14:40;;;;;;;11.18;6.60;;;;;;;24.00;90.43;100547.16;5043928;28;20084;-81
2023/08/19 06:17:08;;;;;;;15.10;7.20;;;;;;;23.82;89.89;100545.56;5043680;28;20055;-84
2023/08/19 06:19:34;;;;;;;12.60;7.65;;;;;;;23.92;90.08;100551.06;5043294;28;20057;-80
2023/08/19 06:22:01;;;;;;;10.30;6.97;;;;;;;23.88;89.75;100549.91;5042262;28;20491;-86
2023/08/19 06:24:28;;;;;;;10.40;7.32;;;;;;;23.88;89.42;100549.13;5031576;28;20125;-84
2023/08/19 06:26:54;;;;;;;9.85;6.95;;;;;;;23.81;89.68;100546.63;5033651;28;20053;-82
2023/08/19 06:29:22;;;;;;;13.15;7.05;;;;;;;23.89;89.19;100540.03;5043084;28;20065;-82
2023/08/19 06:31:50;;;;;;;8.88;6.93;;;;;;;23.96;89.31;100552.19;5032395;28;20185;-83
2023/08/19 06:34:17;;;;;;;10.98;6.90;;;;;;;23.90;88.98;100552.34;5041825;28;20099;-80
2023/08/19 06:36:49;;;;;;;11.65;6.90;;;;;;;23.88;89.32;100555.28;5028396;28;20049;-81
2023/08/19 06:39:24;;;;;;;10.55;6.70;;;;;;;24.02;89.01;100556.53;5042882;28;20113;-82
2023/08/19 06:41:56;;;;;;;10.93;6.68;;;;;;;24.01;89.09;100557.59;5043382;28;20073;-82
2023/08/19 06:44:26;;;;;;;16.20;7.32;;;;;;;24.06;89.03;100560.34;5034977;28;20121;-82
2023/08/19 06:46:56;;;;;;;10.32;6.85;;;;;;;24.17;88.58;100554.06;5041087;28;20053;-81
2023/08/19 06:49:23;;;;;;;9.00;6.10;;;;;;;24.15;88.11;100560.72;5041715;28;20077;-81
2023/08/19 06:51:50;;;;;;;8.68;6.75;;;;;;;24.20;87.87;100557.28;5036576;28;20081;-81
2023/08/19 06:54:17;;;;;;;13.27;6.78;;;;;;;24.36;87.21;100556.47;5036164;28;20084;-81
2023/08/19 06:56:51;;;;;;;7.82;6.55;;;;;;;24.40;86.74;100552.25;5029612;28;20054;-81
2023/08/19 06:59:21;;;;;;;11.23;6.63;;;;;;;24.51;86.24;100559.34;5039789;28;20096;-81
2023/08/19 07:01:51;;;;;;;9.68;6.22;;;;;;;24.69;85.32;100550.97;5032951;28;20050;-85
2023/08/19 07:04:22;;;;;;;12.93;6.93;;;;;;;24.66;85.49;100554.16;5038485;28;20054;-84
2023/08/19 07:06:53;;;;;;;14.38;6.93;;;;;;;24.81;84.33;100548.97;5037521;28;20064;-82
2023/08/19 07:09:36;;;;;;;13.75;6.63;;;;;;;24.91;84.26;100560.84;5038758;28;20088;-82
2023/08/19 07:12:19;;;;;;;9.65;6.25;;;;;;;25.14;83.19;100553.31;5033059;28;20057;-85
2023/08/19 07:14:48;;;;;;;;;;;;;;;25.24;82.65;100552.63;5035304;28;20053;-84
2023/08/19 07:17:26;;;;;;;10.73;6.00;;;;;;;25.56;81.87;100531.16;5040105;28;19924;-82
2023/08/19 07:19:55;;;;;;;13.15;6.57;;;;;;;26.02;80.41;100537.63;5039156;28;20053;-84
2023/08/19 07:22:22;;;;;;;10.48;6.10;;;;;;;25.96;80.02;100553.97;5038033;28;20081;-85
2023/08/19 07:24:53;;;;;;;10.75;6.38;;;;;;;25.79;80.31;100544.22;5049233;28;20050;-79
2023/08/19 07:27:34;;;;;;;11.02;6.25;;;;;;;25.76;80.64;100565.38;5054334;28;20055;-80
2023/08/19 07:30:13;;;;;;;11.05;6.38;;;;;;;25.68;81.02;100569.34;5053981;28;20045;-79
2023/08/19 07:32:59;;;;;;;11.75;6.15;;;;;;;25.61;81.27;100563.34;5034494;28;20050;-78
2023/08/19 07:35:30;;;;;;;10.98;6.32;;;;;;;25.53;81.65;100573.72;5025305;28;20057;-79
2023/08/19 07:37:57;;;;;;;7.93;7.05;;;;;;;26.00;81.25;100577.31;5039912;28;20051;-80
2023/08/19 07:40:25;;;;;;;14.20;6.63;;;;;;;26.00;80.06;100549.69;5039105;28;20053;-81
2023/08/19 07:43:03;;;;;;;11.70;6.38;;;;;;;26.41;79.41;100550.72;5038904;28;20500;-82
2023/08/19 07:45:44;;;;;;;8.05;6.35;;;;;;;26.20;78.60;100562.41;5039505;28;20053;-80
2023/08/19 07:48:51;;;;;;;11.52;6.30;;;;;;;26.28;79.09;100551.97;5038772;28;20081;-82
2023/08/19 07:51:38;;;;;;;8.90;5.85;;;;;;;26.53;78.57;100567.38;5022672;28;20053;-83
2023/08/19 09:53:41;;;;;;;;;;;;;;;;;;;;;
2023/08/19 10:19:47;;;;;;;10.40;7.50;;;;;;;32.03;63.68;100632.56;4987515;28;20049;-86
2023/08/19 10:22:51;;;;;;;11.15;6.90;;;;;;;32.38;61.96;100615.66;4997605;28;20069;-87
2023/08/19 10:32:41;;;;;;;10.52;6.78;;;;;;;33.11;60.53;100625.47;5047026;28;20053;-86
2023/08/19 10:35:20;;;;;;;10.32;6.90;;;;;;;32.71;62.09;100656.16;5055622;28;20514;-87
2023/08/19 10:38:20;;;;;;;12.43;7.50;;;;;;;32.24;62.92;100640.03;5052260;28;20080;-87
2023/08/19 11:08:58;;;;;;;;;;;;;;;;;;;;;
2023/08/19 11:32:19;;;;;;;10.27;8.30;;;;;;;32.40;65.51;100735.31;4972600;28;20054;-85
2023/08/19 11:35:41;;;;;;;14.73;8.95;;;;;;;32.42;65.07;100732.31;4974155;28;20051;-85
2023/08/19 12:22:34;;;;;;;14.55;10.55;;;;;;;29.64;76.03;100897.22;5911751;24;20064;-84
2023/08/19 12:59:08;;;;;;;12.25;10.80;;;;;;;29.10;78.71;100973.34;5991419;23;20035;-83
2023/08/19 13:02:34;;;;;;;13.88;11.20;;;;;;;28.70;79.87;100972.25;5910499;23;20067;-83
2023/08/19 14:26:36;;;;;;;10.77;9.32;;;;;;;25.48;97.97;101047.91;6208277;22;20016;-81
2023/08/19 14:29:05;;;;;;;10.80;9.70;;;;;;;25.38;97.16;101032.50;6220003;23;20031;-78
2023/08/19 14:31:34;;;;;;;11.73;9.77;;;;;;;25.38;96.69;101019.91;6220259;23;20330;-80
2023/08/19 14:34:03;;;;;;;11.57;9.90;;;;;;;25.59;96.95;101017.50;6220181;23;20021;-79
2023/08/19 14:36:30;;;;;;;11.63;10.27;;;;;;;25.62;96.61;101019.69;6219424;23;20444;-81
2023/08/19 14:38:56;;;;;;;12.07;10.65;;;;;;;25.79;97.87;101025.88;6219112;23;20024;-77
2023/08/19 14:41:23;;;;;;;12.35;10.18;;;;;;;25.85;96.91;101030.25;6219748;23;20044;-81
2023/08/19 14:43:49;;;;;;;17.75;10.85;;;;;;;25.95;95.26;101019.69;6220124;23;20673;-79
2023/08/19 14:46:17;;;;;;;13.77;9.55;;;;;;;26.08;94.76;101021.16;6219529;23;20025;-81
2023/08/19 14:48:44;;;;;;;12.50;8.85;;;;;;;26.13;93.43;101016.66;6218810;23;20481;-82
2023/08/19 14:51:10;;;;;;;15.35;8.52;;;;;;;26.06;91.13;101009.88;6218600;23;20020;-81
2023/08/19 14:53:38;;;;;;;15.10;8.60;;;;;;;26.15;90.66;101012.94;6218698;23;20052;-82
2023/08/19 14:56:05;;;;;;;11.23;8.18;;;;;;;26.28;89.73;101020.59;6219147;23;20025;-82
2023/08/19 14:58:31;;;;;;;9.73;7.82;;;;;;;26.34;91.19;101033.88;6219123;23;20048;-81
2023/08/19 15:00:58;;;;;;;11.90;8.30;;;;;;;26.46;90.02;101038.28;6218708;23;20059;-84
2023/08/19 15:03:26;;;;;;;9.27;7.55;;;;;;;26.64;88.60;101032.56;6219883;23;20021;-79
2023/08/19 15:05:53;;;;;;;10.20;7.75;;;;;;;26.96;85.82;101035.31;6216618;23;20528;-82
2023/08/19 15:08:20;;;;;;;9.40;7.55;;;;;;;27.16;84.91;101040.06;6217644;23;20395;-79
2023/08/19 15:10:49;;;;;;;8.57;7.35;;;;;;;27.21;86.57;101054.34;6218043;23;20020;-80
2023/08/19 15:13:16;;;;;;;11.77;7.25;;;;;;;27.31;86.03;101054.44;6219002;23;20024;-82
2023/08/19 15:15:43;;;;;;;8.35;6.78;;;;;;;27.29;84.70;101037.75;6218923;23;20031;-78
2023/08/19 15:18:09;;;;;;;7.60;6.32;;;;;;;27.17;82.11;101021.00;6219322;23;20036;-82
2023/08/19 15:20:37;;;;;;;9.50;6.90;;;;;;;27.28;81.89;101027.28;6218090;23;20453;-82
2023/08/19 15:23:04;;;;;;;11.02;6.68;;;;;;;27.16;82.00;101030.13;6218337;23;20032;-79
2023/08/19 15:25:31;;;;;;;9.20;6.38;;;;;;;27.27;81.15;101031.84;6218638;23;20032;-82
2023/08/19 15:27:57;;;;;;;7.85;6.70;;;;;;;27.28;80.58;101038.03;6218531;23;20354;-81
2023/08/19 15:30:24;;;;;;;7.78;6.22;;;;;;;27.32;80.66;101031.06;6219469;23;20052;-79
2023/08/19 15:32:51;;;;;;;7.75;6.18;;;;;;;27.54;79.65;101025.56;6219816;23;20025;-81
2023/08/19 15:35:18;;;;;;;7.43;6.18;;;;;;;27.70;79.20;101032.69;6220189;23;20414;-79
2023/08/19 15:37:47;;;;;;;9.73;6.30;;;;;;;27.61;79.49;101029.69;6219915;23;20068;-81
2023/08/19 15:40:13;;;;;;;10.60;6.00;;;;;;;27.68;79.26;101040.22;6218861;23;20078;-82
2023/08/19 15:42:40;;;;;;;7.82;6.05;;;;;;;27.59;79.03;101041.75;6218847;23;20059;-81
2023/08/19 15:45:07;;;;;;;9.00;6.25;;;;;;;27.44;78.50;101045.09;6218266;23;20435;-80
2023/08/19 15:47:34;;;;;;;7.60;6.05;;;;;;;27.32;78.86;101045.31;6213197;23;20028;-79
2023/08/19 15:50:00;;;;;;;7.93;6.40;;;;;;;27.27;78.26;101042.59;6216936;23;20284;-82
2023/08/19 15:52:27;;;;;;;8.93;6.93;;;;;;;27.26;78.33;101035.59;6218628;23;20428;-82
2023/08/19 15:54:55;;;;;;;9.13;6.40;;;;;;;27.54;78.63;101041.69;6218714;23;20052;-79
2023/08/19 15:57:22;;;;;;;9.10;6.30;;;;;;;27.71;77.29;101031.63;6218504;23;20095;-81
2023/08/19 15:59:48;;;;;;;8.40;5.97;;;;;;;27.84;76.81;101035.75;6219850;23;20056;-83
2023/08/19 16:02:15;;;;;;;7.90;6.32;;;;;;;27.91;76.98;101036.28;6220300;23;20264;-80
2023/08/19 16:04:42;;;;;;;9.20;6.68;;;;;;;27.57;76.56;101031.22;6218780;23;20024;-81
2023/08/19 16:07:08;;;;;;;9.02;6.80;;;;;;;27.44;77.88;101043.22;6219192;23;20024;-82
2023/08/19 16:09:35;;;;;;;7.88;7.07;;;;;;;27.31;77.31;101032.13;6221331;23;20330;-81
2023/08/19 16:12:03;;;;;;;6.88;6.18;;;;;;;27.32;78.32;101044.50;6221933;23;20021;-82
2023/08/19 16:14:30;;;;;;;8.00;6.60;;;;;;;27.36;77.94;101041.06;6221356;23;20044;-79
2023/08/19 16:16:57;;;;;;;10.45;7.20;;;;;;;27.34;78.45;101042.38;6222321;23;20449;-80
2023/08/19 16:19:23;;;;;;;10.38;7.20;;;;;;;27.31;78.53;101043.69;6219894;23;20024;-80
2023/08/19 16:21:50;;;;;;;8.82;7.10;;;;;;;27.19;78.76;101045.75;6218875;23;20097;-81
2023/08/19 16:24:23;;;;;;;9.55;7.10;;;;;;;27.21;79.99;101048.97;6221040;23;20353;-79
2023/08/19 16:26:50;;;;;;;11.43;7.43;;;;;;;27.07;79.35;101047.78;6220609;23;20072;-80
2023/08/19 16:29:18;;;;;;;10.95;7.00;;;;;;;27.02;79.31;101047.72;6224589;23;20036;-80
2023/08/19 16:31:46;;;;;;;11.02;7.18;;;;;;;27.09;79.82;101048.34;6220951;23;20044;-79
2023/08/19 16:34:13;;;;;;;10.77;7.43;;;;;;;27.09;79.73;101038.41;6220474;23;20025;-82
2023/08/19 16:36:39;;;;;;;12.57;7.65;;;;;;;27.14;79.85;101051.06;6220014;23;20035;-81
2023/08/19 16:39:06;;;;;;;8.82;6.78;;;;;;;27.09;79.56;101051.00;6220756;23;20056;-81
2023/08/19 16:41:33;;;;;;;10.45;7.25;;;;;;;26.99;78.92;101050.91;6220424;23;20083;-81
2023/08/19 16:43:59;;;;;;;13.35;8.05;;;;;;;26.90;79.57;101053.25;6221391;23;20051;-82
2023/08/19 16:46:27;;;;;;;8.55;7.03;;;;;;;26.74;80.03;101060.34;6220819;23;20052;-79
2023/08/19 16:48:54;;;;;;;8.85;7.05;;;;;;;26.83;80.18;101062.56;6221289;23;20076;-81
2023/08/19 16:51:20;;;;;;;9.07;6.78;;;;;;;26.86;80.85;101064.75;6221243;23;20059;-78
2023/08/19 16:53:47;;;;;;;11.70;7.40;;;;;;;26.87;81.09;101061.00;6217991;23;20382;-78
2023/08/19 16:56:13;;;;;;;9.60;6.97;;;;;;;26.89;80.09;101053.50;6219826;23;20056;-80
2023/08/19 16:58:40;;;;;;;8.50;6.72;;;;;;;26.86;80.26;101059.38;6222011;23;20028;-81
2023/08/19 17:01:07;;;;;;;8.80;7.00;;;;;;;26.83;80.92;101054.50;6222472;23;20065;-81
2023/08/19 17:03:35;;;;;;;8.65;6.50;;;;;;;26.85;80.19;101047.03;6222787;23;20035;-79
2023/08/19 17:06:02;;;;;;;7.60;6.50;;;;;;;26.77;80.58;101049.09;6220965;23;20047;-81
2023/08/19 17:08:31;;;;;;;12.10;7.18;;;;;;;26.76;80.78;101050.16;6219723;23;20040;-82
2023/08/19 17:10:58;;;;;;;9.48;6.80;;;;;;;26.68;80.27;101042.53;6219612;23;20057;-83
2023/08/19 17:13:25;;;;;;;10.38;7.22;;;;;;;26.50;81.64;101047.44;6220802;23;20055;-81
2023/08/19 17:15:55;;;;;;;9.40;7.00;;;;;;;26.33;82.84;101055.56;6220697;23;20465;-80
2023/08/19 17:18:23;;;;;;;11.05;8.02;;;;;;;26.50;82.63;101060.84;6221243;23;20063;-81
2023/08/19 17:20:53;;;;;;;13.70;8.40;;;;;;;26.50;82.49;101058.97;6221171;23;20028;-82
2023/08/19 17:23:20;;;;;;;9.80;7.18;;;;;;;26.54;82.66;101056.59;6222387;23;20035;-82
2023/08/19 17:25:47;;;;;;;9.88;7.32;;;;;;;26.56;82.37;101062.53;6221014;23;20368;-80
2023/08/19 17:28:13;;;;;;;9.80;7.15;;;;;;;26.50;82.50;101063.53;6221841;23;20071;-83
2023/08/19 17:30:40;;;;;;;11.18;7.60;;;;;;;26.38;82.65;101066.38;6223231;23;20055;-82
2023/08/19 17:33:07;;;;;;;9.07;6.93;;;;;;;26.39;82.42;101057.25;6222527;23;20021;-80
2023/08/19 17:35:34;;;;;;;9.90;7.30;;;;;;;26.50;82.76;101069.72;6223174;23;20135;-81